MMAS/AGU METAR and TAF weather

Enter ICAO airport designator
Station Type Date Time Source
MMAS METAR 2020/09/22 04:47 UTC NOAA

MMAS 220447Z 24002KT 8SM SCT040 SCT110 BKN270 16/13 A3033 RMK 8/578 OCNL DROPS OVR STN


Station Type Date Time Source
MMAS Decoded METAR 2020/09/22 04:47 UTC NOAA

Aguascalientes, Ags., Mexico (MMAS) 21-53N 102-18W
Sep 22, 2020 - 12:47 AM EDT / 2020.09.22 0447 UTC
Wind: from the WSW (240 degrees) at 2 MPH (2 KT):0
Visibility: 8 mile(s):0
Sky conditions: mostly cloudy
Temperature: 60 F (16 C)
Dew Point: 55 F (13 C)
Relative Humidity: 82%
Pressure (altimeter): 30.33 in. Hg (1027 hPa)
ob: MMAS 220447Z 24002KT 8SM SCT040 SCT110 BKN270 16/13 A3033 RMK 8/578 OCNL DROPS OVR STN
cycle: 5

Station Type Date Time Source
MMAS TAF 2020/09/21 18:58 UTC NOAA

TAF MMAS 211650Z 2118/2218 03015KT P6SM BKN020
FM212200 08015KT P6SM BKN015CB OVC090
TEMPO 2122/2202 4SM TSRA
BECMG 2203/2204 02010KT
TEMPO 2203/2207 6SM -RA
FM221200 00000KT 3SM HZ OVC010
FM221500 00000KT 3SM HZ SCT010 BKN090

Example: see airport list